TVF4764 LFPO-LEIB
Flight info
| Callsign | TVF4764 |
|---|---|
| Flight time | 1h 44m |
| Altitude | 37000 |
| Route | ERIXU DCT ETAMO DCT ADEKA DCT MOKDI DCT MEN DCT BADAM DCT KANIG DCT KENAS DCT POS |
| Aircraft | A320/M-SDE3FGHIRWY/LB1 |
Departure
| Time | 2026-05-04 16:20 |
|---|---|
| Airport | Paris-Orly Airport (LFPO) |
Arrival
| Time | 2026-05-04 18:04 |
|---|---|
| Airport | Ibiza Airport (LEIB) |
| Time | Latitude | Longitude | Altitude | Speed | Heading |
|---|---|---|---|---|---|
| 2026-05-04 15:43 | 48.72701 | 2.36664 | 285 ft | 0 kts | 22° |
| 2026-05-04 16:06 | 48.72679 | 2.36650 | 283 ft | 4 kts | 22° |
| 2026-05-04 16:07 | 48.72606 | 2.36649 | 283 ft | 4 kts | 310° |
| 2026-05-04 16:08 | 48.72597 | 2.36681 | 288 ft | 4 kts | 256° |
| 2026-05-04 16:08 | 48.72600 | 2.36694 | 283 ft | 0 kts | 247° |
| 2026-05-04 16:12 | 48.72474 | 2.36509 | 288 ft | 18 kts | 254° |
| 2026-05-04 16:12 | 48.72356 | 2.35861 | 286 ft | 24 kts | 255° |
| 2026-05-04 16:13 | 48.72257 | 2.35335 | 288 ft | 28 kts | 255° |
| 2026-05-04 16:13 | 48.72387 | 2.34773 | 284 ft | 30 kts | 294° |
| 2026-05-04 16:14 | 48.72560 | 2.34170 | 286 ft | 32 kts | 282° |
| 2026-05-04 16:14 | 48.72368 | 2.33516 | 286 ft | 37 kts | 241° |
| 2026-05-04 16:15 | 48.71993 | 2.32450 | 286 ft | 39 kts | 242° |
| 2026-05-04 16:16 | 48.71821 | 2.31841 | 285 ft | 14 kts | 291° |
| 2026-05-04 16:16 | 48.71857 | 2.31761 | 285 ft | 11 kts | 314° |
| 2026-05-04 16:17 | 48.72050 | 2.31834 | 287 ft | 15 kts | 58° |
| 2026-05-04 16:18 | 48.72056 | 2.31853 | 287 ft | 0 kts | 63° |
| 2026-05-04 16:19 | 48.72571 | 2.33303 | 288 ft | 134 kts | 62° |
| 2026-05-04 16:19 | 48.73594 | 2.36255 | 800 ft | 179 kts | 63° |
| 2026-05-04 16:20 | 48.75239 | 2.42798 | 1532 ft | 251 kts | 75° |
| 2026-05-04 16:20 | 48.74944 | 2.48002 | 2825 ft | 255 kts | 100° |
| 2026-05-04 16:21 | 48.74662 | 2.56164 | 5543 ft | 265 kts | 101° |
| 2026-05-04 16:22 | 48.72161 | 2.60092 | 7125 ft | 277 kts | 158° |
| 2026-05-04 16:22 | 48.66456 | 2.61781 | 9595 ft | 284 kts | 184° |
| 2026-05-04 16:23 | 48.61147 | 2.57396 | 11102 ft | 327 kts | 229° |
| 2026-05-04 16:24 | 48.54752 | 2.45797 | 12806 ft | 374 kts | 230° |
| 2026-05-04 16:25 | 48.51003 | 2.40266 | 14333 ft | 383 kts | 212° |
| 2026-05-04 16:26 | 48.41762 | 2.32098 | 16847 ft | 389 kts | 210° |
| 2026-05-04 16:26 | 48.34727 | 2.25901 | 18753 ft | 393 kts | 210° |
| 2026-05-04 16:27 | 48.29719 | 2.22551 | 19845 ft | 397 kts | 194° |
| 2026-05-04 16:28 | 48.21417 | 2.22795 | 21381 ft | 405 kts | 172° |
| 2026-05-04 16:28 | 48.13026 | 2.24843 | 22758 ft | 410 kts | 173° |
| 2026-05-04 16:29 | 48.01624 | 2.27055 | 24290 ft | 416 kts | 177° |
| 2026-05-04 16:30 | 47.92928 | 2.28020 | 25407 ft | 419 kts | 177° |
| 2026-05-04 16:31 | 47.87097 | 2.28750 | 26179 ft | 422 kts | 177° |
| 2026-05-04 16:31 | 47.78381 | 2.29920 | 27541 ft | 418 kts | 177° |
| 2026-05-04 16:32 | 47.69731 | 2.31069 | 29074 ft | 411 kts | 177° |
| 2026-05-04 16:33 | 47.64060 | 2.31805 | 30074 ft | 407 kts | 178° |
| 2026-05-04 16:33 | 47.58436 | 2.32537 | 30956 ft | 403 kts | 178° |
| 2026-05-04 16:34 | 47.52873 | 2.33256 | 31870 ft | 399 kts | 178° |
| 2026-05-04 16:34 | 47.50110 | 2.33617 | 32341 ft | 397 kts | 178° |
| 2026-05-04 16:35 | 47.41909 | 2.34681 | 33729 ft | 391 kts | 178° |
| 2026-05-04 16:35 | 47.33799 | 2.35722 | 34654 ft | 391 kts | 178° |
| 2026-05-04 16:36 | 47.31080 | 2.36070 | 34891 ft | 393 kts | 178° |
| 2026-05-04 16:36 | 47.25615 | 2.36773 | 35381 ft | 395 kts | 178° |
| 2026-05-04 16:37 | 47.20124 | 2.37475 | 35845 ft | 397 kts | 178° |
| 2026-05-04 16:37 | 47.17365 | 2.37825 | 36072 ft | 398 kts | 178° |
| 2026-05-04 16:37 | 47.11821 | 2.38536 | 36513 ft | 401 kts | 178° |
| 2026-05-04 16:38 | 47.06248 | 2.39255 | 36881 ft | 403 kts | 178° |
| 2026-05-04 16:39 | 46.97705 | 2.40335 | 36918 ft | 417 kts | 178° |
| 2026-05-04 16:39 | 46.91906 | 2.41075 | 36917 ft | 419 kts | 178° |
| 2026-05-04 16:40 | 46.80296 | 2.42545 | 36914 ft | 419 kts | 178° |
| 2026-05-04 16:41 | 46.65762 | 2.44372 | 36911 ft | 420 kts | 178° |
| 2026-05-04 16:43 | 46.51207 | 2.46210 | 36924 ft | 420 kts | 179° |
| 2026-05-04 16:43 | 46.42483 | 2.47300 | 36931 ft | 419 kts | 179° |
| 2026-05-04 16:45 | 46.25998 | 2.49341 | 36921 ft | 418 kts | 178° |
| 2026-05-04 16:46 | 46.11500 | 2.51136 | 36917 ft | 418 kts | 179° |
| 2026-05-04 16:47 | 45.99917 | 2.52560 | 36929 ft | 417 kts | 179° |
| 2026-05-04 16:48 | 45.88342 | 2.53976 | 36930 ft | 417 kts | 179° |
| 2026-05-04 16:49 | 45.76771 | 2.55382 | 36929 ft | 417 kts | 179° |
| 2026-05-04 16:50 | 45.65194 | 2.56791 | 36925 ft | 417 kts | 179° |
| 2026-05-04 16:51 | 45.56501 | 2.57850 | 36931 ft | 418 kts | 179° |
| 2026-05-04 16:52 | 45.44907 | 2.59232 | 36923 ft | 419 kts | 179° |
| 2026-05-04 16:53 | 45.36189 | 2.60288 | 36926 ft | 419 kts | 179° |
| 2026-05-04 16:54 | 45.24554 | 2.61685 | 36928 ft | 420 kts | 179° |
| 2026-05-04 16:55 | 45.07082 | 2.63750 | 36929 ft | 420 kts | 179° |
| 2026-05-04 16:56 | 44.92508 | 2.65483 | 36953 ft | 420 kts | 179° |
| 2026-05-04 16:57 | 44.83759 | 2.66519 | 36950 ft | 420 kts | 179° |
| 2026-05-04 16:58 | 44.72093 | 2.67893 | 36933 ft | 420 kts | 179° |
| 2026-05-04 17:00 | 44.54659 | 2.69922 | 36939 ft | 418 kts | 180° |
| 2026-05-04 17:01 | 44.40168 | 2.71603 | 36952 ft | 418 kts | 180° |
| 2026-05-04 17:02 | 44.28602 | 2.72946 | 36945 ft | 417 kts | 180° |
| 2026-05-04 17:03 | 44.19893 | 2.73945 | 36943 ft | 417 kts | 180° |
| 2026-05-04 17:03 | 44.11229 | 2.74940 | 36941 ft | 416 kts | 180° |
| 2026-05-04 17:04 | 43.99690 | 2.76265 | 36941 ft | 416 kts | 180° |
| 2026-05-04 17:05 | 43.88150 | 2.77579 | 36929 ft | 416 kts | 180° |
| 2026-05-04 17:06 | 43.79487 | 2.78570 | 36917 ft | 416 kts | 180° |
| 2026-05-04 17:07 | 43.71791 | 2.79441 | 36923 ft | 417 kts | 180° |
| 2026-05-04 17:07 | 43.65028 | 2.80210 | 36931 ft | 417 kts | 180° |
| 2026-05-04 17:08 | 43.56339 | 2.81192 | 36917 ft | 418 kts | 180° |
| 2026-05-04 17:09 | 43.50541 | 2.81843 | 36915 ft | 418 kts | 180° |
| 2026-05-04 17:09 | 43.44741 | 2.82502 | 36921 ft | 418 kts | 180° |
| 2026-05-04 17:10 | 43.30228 | 2.84127 | 36929 ft | 418 kts | 180° |
| 2026-05-04 17:11 | 43.24418 | 2.84773 | 36932 ft | 418 kts | 180° |
| 2026-05-04 17:12 | 43.15719 | 2.85738 | 36934 ft | 418 kts | 181° |
| 2026-05-04 17:13 | 43.01258 | 2.87346 | 36928 ft | 416 kts | 181° |
| 2026-05-04 17:14 | 42.89719 | 2.88616 | 36923 ft | 415 kts | 181° |
| 2026-05-04 17:15 | 42.81076 | 2.89565 | 36932 ft | 415 kts | 181° |
| 2026-05-04 17:16 | 42.70495 | 2.90741 | 36938 ft | 415 kts | 181° |
| 2026-05-04 17:17 | 42.58984 | 2.91995 | 36933 ft | 415 kts | 181° |
| 2026-05-04 17:18 | 42.47465 | 2.93244 | 36916 ft | 415 kts | 181° |
| 2026-05-04 17:19 | 42.35936 | 2.94500 | 36895 ft | 415 kts | 181° |
| 2026-05-04 17:20 | 42.24410 | 2.95733 | 36920 ft | 415 kts | 181° |
| 2026-05-04 17:20 | 42.15757 | 2.96670 | 36924 ft | 416 kts | 181° |
| 2026-05-04 17:21 | 42.04220 | 2.97901 | 36937 ft | 416 kts | 181° |
| 2026-05-04 17:22 | 41.98445 | 2.98519 | 36943 ft | 416 kts | 181° |
| 2026-05-04 17:23 | 41.86899 | 2.99760 | 36941 ft | 416 kts | 182° |
| 2026-05-04 17:24 | 41.78243 | 3.00683 | 36948 ft | 416 kts | 182° |
| 2026-05-04 17:25 | 41.66697 | 3.01919 | 36943 ft | 416 kts | 182° |
| 2026-05-04 17:26 | 41.55147 | 3.03129 | 36942 ft | 416 kts | 182° |
| 2026-05-04 17:27 | 41.40703 | 3.04660 | 36932 ft | 417 kts | 182° |
| 2026-05-04 17:28 | 41.29102 | 3.05862 | 36898 ft | 417 kts | 182° |
| 2026-05-04 17:29 | 41.11729 | 3.07691 | 36933 ft | 418 kts | 182° |
| 2026-05-04 17:31 | 40.97250 | 3.09197 | 36922 ft | 418 kts | 183° |
| 2026-05-04 17:32 | 40.82747 | 3.10701 | 36919 ft | 418 kts | 183° |
| 2026-05-04 17:33 | 40.71157 | 3.11884 | 36924 ft | 418 kts | 183° |
| 2026-05-04 17:34 | 40.59559 | 3.13083 | 36936 ft | 418 kts | 183° |
| 2026-05-04 17:35 | 40.45095 | 3.13852 | 36936 ft | 413 kts | 189° |
| 2026-05-04 17:36 | 40.39354 | 3.13578 | 36921 ft | 412 kts | 189° |
| 2026-05-04 17:36 | 40.33623 | 3.13313 | 36933 ft | 412 kts | 189° |
| 2026-05-04 17:37 | 40.27888 | 3.13049 | 36942 ft | 412 kts | 189° |
| 2026-05-04 17:37 | 40.22158 | 3.12785 | 36947 ft | 412 kts | 189° |
| 2026-05-04 17:38 | 40.16503 | 3.12284 | 37156 ft | 405 kts | 197° |
| 2026-05-04 17:38 | 40.13699 | 3.12006 | 37035 ft | 409 kts | 195° |
| 2026-05-04 17:38 | 40.10827 | 3.11853 | 37039 ft | 411 kts | 193° |
| 2026-05-04 17:39 | 40.02226 | 3.11659 | 36790 ft | 411 kts | 193° |
| 2026-05-04 17:39 | 39.96521 | 3.11485 | 36926 ft | 410 kts | 194° |
| 2026-05-04 17:40 | 39.93669 | 3.11372 | 37097 ft | 410 kts | 194° |
| 2026-05-04 17:40 | 39.90797 | 3.11167 | 37234 ft | 403 kts | 201° |
| 2026-05-04 17:40 | 39.88225 | 3.10170 | 37064 ft | 380 kts | 218° |
| 2026-05-04 17:40 | 39.86026 | 3.08279 | 36805 ft | 373 kts | 227° |
| 2026-05-04 17:41 | 39.82292 | 3.03558 | 36495 ft | 379 kts | 233° |
| 2026-05-04 17:41 | 39.80342 | 3.01244 | 36244 ft | 385 kts | 223° |
| 2026-05-04 17:41 | 39.78057 | 2.99458 | 36370 ft | 391 kts | 216° |
| 2026-05-04 17:42 | 39.73028 | 2.96629 | 36488 ft | 395 kts | 212° |
| 2026-05-04 17:42 | 39.68028 | 2.93683 | 36137 ft | 389 kts | 217° |
| 2026-05-04 17:43 | 39.65685 | 2.91966 | 35789 ft | 385 kts | 219° |
| 2026-05-04 17:43 | 39.63404 | 2.90152 | 35507 ft | 384 kts | 221° |
| 2026-05-04 17:43 | 39.62966 | 2.89792 | 35469 ft | 385 kts | 221° |
| 2026-05-04 17:44 | 39.60565 | 2.87833 | 35190 ft | 385 kts | 220° |
| 2026-05-04 17:44 | 39.58285 | 2.86004 | 34981 ft | 386 kts | 219° |
| 2026-05-04 17:44 | 39.55981 | 2.84211 | 34767 ft | 386 kts | 219° |
| 2026-05-04 17:45 | 39.53656 | 2.82475 | 34541 ft | 386 kts | 218° |
| 2026-05-04 17:45 | 39.51290 | 2.80806 | 33745 ft | 389 kts | 216° |
| 2026-05-04 17:45 | 39.48869 | 2.79218 | 32958 ft | 390 kts | 214° |
| 2026-05-04 17:45 | 39.46417 | 2.77722 | 32249 ft | 389 kts | 213° |
| 2026-05-04 17:46 | 39.43961 | 2.76253 | 31468 ft | 387 kts | 217° |
| 2026-05-04 17:46 | 39.41822 | 2.74191 | 30441 ft | 384 kts | 230° |
| 2026-05-04 17:46 | 39.40173 | 2.71456 | 29331 ft | 389 kts | 240° |
| 2026-05-04 17:46 | 39.38687 | 2.68515 | 28323 ft | 391 kts | 240° |
| 2026-05-04 17:47 | 39.37228 | 2.65548 | 27405 ft | 391 kts | 241° |
| 2026-05-04 17:47 | 39.35772 | 2.62580 | 26479 ft | 391 kts | 240° |
| 2026-05-04 17:47 | 39.34251 | 2.59675 | 25586 ft | 390 kts | 238° |
| 2026-05-04 17:47 | 39.32612 | 2.56886 | 24754 ft | 389 kts | 235° |
| 2026-05-04 17:48 | 39.31459 | 2.55129 | 24178 ft | 388 kts | 232° |
| 2026-05-04 17:48 | 39.29586 | 2.52620 | 23377 ft | 387 kts | 229° |
| 2026-05-04 17:48 | 39.27569 | 2.50275 | 22500 ft | 384 kts | 227° |
| 2026-05-04 17:48 | 39.25641 | 2.47896 | 21308 ft | 386 kts | 231° |
| 2026-05-04 17:49 | 39.23877 | 2.45317 | 20292 ft | 388 kts | 235° |
| 2026-05-04 17:49 | 39.22226 | 2.42564 | 19765 ft | 377 kts | 238° |
| 2026-05-04 17:49 | 39.20725 | 2.39849 | 19365 ft | 366 kts | 239° |
| 2026-05-04 17:49 | 39.19273 | 2.37195 | 18878 ft | 360 kts | 239° |
| 2026-05-04 17:50 | 39.17842 | 2.34563 | 18392 ft | 356 kts | 239° |
| 2026-05-04 17:50 | 39.16336 | 2.32019 | 17587 ft | 359 kts | 235° |
| 2026-05-04 17:50 | 39.14646 | 2.29627 | 16792 ft | 362 kts | 230° |
| 2026-05-04 17:50 | 39.12792 | 2.27420 | 16066 ft | 364 kts | 226° |
| 2026-05-04 17:51 | 39.11038 | 2.25054 | 14928 ft | 371 kts | 239° |
| 2026-05-04 17:51 | 39.10004 | 2.22047 | 13763 ft | 362 kts | 259° |
| 2026-05-04 17:51 | 39.09624 | 2.18976 | 12706 ft | 332 kts | 263° |
| 2026-05-04 17:51 | 39.09294 | 2.16167 | 11956 ft | 302 kts | 262° |
| 2026-05-04 17:52 | 39.08947 | 2.13628 | 11360 ft | 276 kts | 262° |
| 2026-05-04 17:52 | 39.08601 | 2.11249 | 10374 ft | 268 kts | 261° |
| 2026-05-04 17:52 | 39.08252 | 2.08914 | 9331 ft | 263 kts | 261° |
| 2026-05-04 17:52 | 39.07896 | 2.06632 | 8787 ft | 257 kts | 261° |
| 2026-05-04 17:53 | 39.07535 | 2.04370 | 8437 ft | 259 kts | 261° |
| 2026-05-04 17:53 | 39.07170 | 2.02099 | 8044 ft | 259 kts | 261° |
| 2026-05-04 17:53 | 39.06807 | 1.99848 | 7713 ft | 256 kts | 261° |
| 2026-05-04 17:53 | 39.06454 | 1.97612 | 7483 ft | 255 kts | 262° |
| 2026-05-04 17:54 | 39.06113 | 1.95376 | 7297 ft | 255 kts | 262° |
| 2026-05-04 17:54 | 39.05781 | 1.93132 | 7127 ft | 255 kts | 262° |
| 2026-05-04 17:54 | 39.05425 | 1.90898 | 6987 ft | 255 kts | 261° |
| 2026-05-04 17:54 | 39.05035 | 1.88665 | 6852 ft | 258 kts | 261° |
| 2026-05-04 17:55 | 39.04609 | 1.86417 | 6733 ft | 259 kts | 260° |
| 2026-05-04 17:55 | 39.04196 | 1.84171 | 6620 ft | 257 kts | 262° |
| 2026-05-04 17:55 | 39.03854 | 1.81959 | 6466 ft | 248 kts | 264° |
| 2026-05-04 17:55 | 39.03592 | 1.79807 | 6291 ft | 240 kts | 267° |
| 2026-05-04 17:56 | 39.03380 | 1.77691 | 6108 ft | 231 kts | 265° |
| 2026-05-04 17:56 | 39.03068 | 1.75707 | 5953 ft | 221 kts | 262° |
| 2026-05-04 17:56 | 39.02651 | 1.73854 | 5785 ft | 214 kts | 253° |
| 2026-05-04 17:56 | 39.01943 | 1.72197 | 5589 ft | 206 kts | 248° |
| 2026-05-04 17:57 | 39.01270 | 1.70627 | 5467 ft | 195 kts | 251° |
| 2026-05-04 17:57 | 39.00666 | 1.69114 | 5273 ft | 185 kts | 252° |
| 2026-05-04 17:57 | 39.00057 | 1.67677 | 4913 ft | 183 kts | 251° |
| 2026-05-04 17:57 | 38.99427 | 1.66258 | 4449 ft | 180 kts | 250° |
| 2026-05-04 17:58 | 38.98827 | 1.64894 | 3949 ft | 169 kts | 253° |
| 2026-05-04 17:58 | 38.98286 | 1.63653 | 3681 ft | 149 kts | 251° |
| 2026-05-04 17:58 | 38.97801 | 1.62520 | 3549 ft | 143 kts | 251° |
| 2026-05-04 17:58 | 38.97269 | 1.61441 | 3500 ft | 141 kts | 250° |
| 2026-05-04 17:59 | 38.96808 | 1.60332 | 3504 ft | 141 kts | 252° |
| 2026-05-04 17:59 | 38.96334 | 1.59217 | 3425 ft | 142 kts | 251° |
| 2026-05-04 17:59 | 38.95406 | 1.56994 | 3077 ft | 140 kts | 251° |
| 2026-05-04 18:00 | 38.94944 | 1.55887 | 2976 ft | 141 kts | 252° |
| 2026-05-04 18:00 | 38.94493 | 1.54773 | 2768 ft | 140 kts | 251° |
| 2026-05-04 18:00 | 38.94056 | 1.53667 | 2589 ft | 138 kts | 252° |
| 2026-05-04 18:00 | 38.93592 | 1.52575 | 2383 ft | 139 kts | 250° |
| 2026-05-04 18:01 | 38.93126 | 1.51474 | 2230 ft | 141 kts | 251° |
| 2026-05-04 18:01 | 38.92693 | 1.50380 | 2154 ft | 135 kts | 242° |
| 2026-05-04 18:01 | 38.92246 | 1.49311 | 1959 ft | 135 kts | 240° |
| 2026-05-04 18:02 | 38.91382 | 1.47209 | 1520 ft | 133 kts | 238° |
| 2026-05-04 18:02 | 38.90955 | 1.46160 | 1275 ft | 132 kts | 239° |
| 2026-05-04 18:02 | 38.90532 | 1.45108 | 1117 ft | 132 kts | 239° |
| 2026-05-04 18:02 | 38.90095 | 1.44064 | 924 ft | 133 kts | 238° |
| 2026-05-04 18:03 | 38.89669 | 1.43011 | 750 ft | 134 kts | 243° |
| 2026-05-04 18:03 | 38.89245 | 1.41957 | 563 ft | 133 kts | 239° |
| 2026-05-04 18:03 | 38.88787 | 1.40916 | 461 ft | 133 kts | 239° |
| 2026-05-04 18:03 | 38.88348 | 1.39875 | 254 ft | 129 kts | 239° |
| 2026-05-04 18:04 | 38.87914 | 1.38836 | 62 ft | 132 kts | 241° |
| 2026-05-04 18:04 | 38.87493 | 1.37824 | 15 ft | 116 kts | 241° |
| 2026-05-04 18:04 | 38.87201 | 1.37111 | 12 ft | 8 kts | 242° |
| 2026-05-04 18:05 | 38.87151 | 1.36986 | 12 ft | 19 kts | 242° |
| 2026-05-04 18:05 | 38.87105 | 1.36810 | 10 ft | 24 kts | 267° |
| 2026-05-04 18:05 | 38.87103 | 1.36622 | 8 ft | 15 kts | 274° |
| 2026-05-04 18:05 | 38.87172 | 1.36573 | 10 ft | 15 kts | 43° |
| 2026-05-04 18:06 | 38.87272 | 1.36835 | 9 ft | 14 kts | 62° |
| 2026-05-04 18:06 | 38.87325 | 1.36844 | 9 ft | 9 kts | 337° |
| 2026-05-04 18:06 | 38.87405 | 1.36796 | 8 ft | 10 kts | 334° |
| 2026-05-04 18:07 | 38.87467 | 1.36781 | 9 ft | 3 kts | 5° |
| 2026-05-04 18:07 | 38.87498 | 1.36792 | 8 ft | 6 kts | 18° |
| 2026-05-04 18:07 | 38.87520 | 1.36801 | 8 ft | 1 kts | 18° |
| 2026-05-04 18:07 | 38.87523 | 1.36802 | 8 ft | 0 kts | 18° |